sensor_id;sensor_type;location;lat;lon;timestamp;temperature;humidity
8715;DHT22;4394;51.208;8.904;2023-03-24T00:01:47;12.20;99.90
8715;DHT22;4394;51.208;8.904;2023-03-24T00:04:35;12.20;99.90
8715;DHT22;4394;51.208;8.904;2023-03-24T00:07:25;12.20;99.90
8715;DHT22;4394;51.208;8.904;2023-03-24T00:10:18;12.10;99.90
8715;DHT22;4394;51.208;8.904;2023-03-24T00:13:09;12.20;99.90
8715;DHT22;4394;51.208;8.904;2023-03-24T00:15:57;12.20;99.90
8715;DHT22;4394;51.208;8.904;2023-03-24T00:18:45;12.20;99.90
8715;DHT22;4394;51.208;8.904;2023-03-24T00:21:39;12.10;99.90
8715;DHT22;4394;51.208;8.904;2023-03-24T00:24:27;12.10;99.90
8715;DHT22;4394;51.208;8.904;2023-03-24T00:27:15;12.10;99.90
8715;DHT22;4394;51.208;8.904;2023-03-24T00:30:08;12.10;99.90
8715;DHT22;4394;51.208;8.904;2023-03-24T00:32:57;12.10;99.90
8715;DHT22;4394;51.208;8.904;2023-03-24T00:35:48;12.10;99.90
8715;DHT22;4394;51.208;8.904;2023-03-24T00:38:37;12.10;99.90
8715;DHT22;4394;51.208;8.904;2023-03-24T00:41:25;12.10;99.90
8715;DHT22;4394;51.208;8.904;2023-03-24T00:44:15;12.10;99.90
8715;DHT22;4394;51.208;8.904;2023-03-24T00:47:05;12.10;99.90
8715;DHT22;4394;51.208;8.904;2023-03-24T00:49:54;12.10;99.90
8715;DHT22;4394;51.208;8.904;2023-03-24T00:52:43;12.20;99.90
8715;DHT22;4394;51.208;8.904;2023-03-24T00:55:34;12.10;99.90
8715;DHT22;4394;51.208;8.904;2023-03-24T00:58:24;12.10;99.90
8715;DHT22;4394;51.208;8.904;2023-03-24T01:01:12;12.10;99.90
8715;DHT22;4394;51.208;8.904;2023-03-24T01:04:02;12.10;99.90
8715;DHT22;4394;51.208;8.904;2023-03-24T01:06:51;12.10;99.90
8715;DHT22;4394;51.208;8.904;2023-03-24T01:09:40;12.10;99.90
8715;DHT22;4394;51.208;8.904;2023-03-24T01:12:29;12.10;99.90
8715;DHT22;4394;51.208;8.904;2023-03-24T01:15:20;12.10;99.90
8715;DHT22;4394;51.208;8.904;2023-03-24T01:18:08;12.00;99.90
8715;DHT22;4394;51.208;8.904;2023-03-24T01:21:00;12.00;99.90
8715;DHT22;4394;51.208;8.904;2023-03-24T01:23:48;12.00;99.90
8715;DHT22;4394;51.208;8.904;2023-03-24T01:26:36;12.00;99.90
8715;DHT22;4394;51.208;8.904;2023-03-24T01:29:23;12.00;99.90
8715;DHT22;4394;51.208;8.904;2023-03-24T01:32:11;12.00;99.90
8715;DHT22;4394;51.208;8.904;2023-03-24T01:34:59;12.00;99.90
8715;DHT22;4394;51.208;8.904;2023-03-24T01:37:49;12.00;99.90
8715;DHT22;4394;51.208;8.904;2023-03-24T01:40:38;12.10;99.90
8715;DHT22;4394;51.208;8.904;2023-03-24T01:43:29;12.10;99.90
8715;DHT22;4394;51.208;8.904;2023-03-24T01:46:19;12.10;99.90
8715;DHT22;4394;51.208;8.904;2023-03-24T01:49:07;12.10;99.90
8715;DHT22;4394;51.208;8.904;2023-03-24T01:51:59;12.10;99.90
8715;DHT22;4394;51.208;8.904;2023-03-24T01:54:52;12.10;99.90
8715;DHT22;4394;51.208;8.904;2023-03-24T01:57:44;12.10;99.90
8715;DHT22;4394;51.208;8.904;2023-03-24T02:00:33;12.10;99.90
8715;DHT22;4394;51.208;8.904;2023-03-24T02:03:24;12.10;99.90
8715;DHT22;4394;51.208;8.904;2023-03-24T02:06:16;12.10;99.90
8715;DHT22;4394;51.208;8.904;2023-03-24T02:09:07;12.10;99.90
8715;DHT22;4394;51.208;8.904;2023-03-24T02:11:57;12.10;99.90
8715;DHT22;4394;51.208;8.904;2023-03-24T02:14:45;12.10;99.90
8715;DHT22;4394;51.208;8.904;2023-03-24T02:17:46;12.10;99.90
8715;DHT22;4394;51.208;8.904;2023-03-24T02:21:00;12.10;99.90
8715;DHT22;4394;51.208;8.904;2023-03-24T02:27:30;12.10;99.90
8715;DHT22;4394;51.208;8.904;2023-03-24T02:30:46;12.10;99.90
8715;DHT22;4394;51.208;8.904;2023-03-24T02:37:24;12.10;99.90
8715;DHT22;4394;51.208;8.904;2023-03-24T02:40:31;12.10;99.90
8715;DHT22;4394;51.208;8.904;2023-03-24T02:43:30;12.10;99.90
8715;DHT22;4394;51.208;8.904;2023-03-24T02:46:22;12.10;99.90
8715;DHT22;4394;51.208;8.904;2023-03-24T02:49:20;12.20;99.90
8715;DHT22;4394;51.208;8.904;2023-03-24T02:52:17;12.10;99.90
8715;DHT22;4394;51.208;8.904;2023-03-24T02:55:11;12.20;99.90
8715;DHT22;4394;51.208;8.904;2023-03-24T02:58:05;12.10;99.90
8715;DHT22;4394;51.208;8.904;2023-03-24T03:00:57;12.10;99.90
8715;DHT22;4394;51.208;8.904;2023-03-24T03:03:50;12.10;99.90
8715;DHT22;4394;51.208;8.904;2023-03-24T03:06:41;12.10;99.90
8715;DHT22;4394;51.208;8.904;2023-03-24T03:09:30;12.20;99.90
8715;DHT22;4394;51.208;8.904;2023-03-24T03:12:21;12.20;99.90
8715;DHT22;4394;51.208;8.904;2023-03-24T03:15:14;12.20;99.90
8715;DHT22;4394;51.208;8.904;2023-03-24T03:18:07;12.20;99.90
8715;DHT22;4394;51.208;8.904;2023-03-24T03:21:00;12.20;99.90
8715;DHT22;4394;51.208;8.904;2023-03-24T03:23:52;12.20;99.90
8715;DHT22;4394;51.208;8.904;2023-03-24T03:26:42;12.10;99.90
8715;DHT22;4394;51.208;8.904;2023-03-24T03:29:36;12.10;99.90
8715;DHT22;4394;51.208;8.904;2023-03-24T03:32:29;12.10;99.90
8715;DHT22;4394;51.208;8.904;2023-03-24T03:35:23;12.10;99.90
8715;DHT22;4394;51.208;8.904;2023-03-24T03:38:16;12.10;99.90
8715;DHT22;4394;51.208;8.904;2023-03-24T03:41:05;12.10;99.90
8715;DHT22;4394;51.208;8.904;2023-03-24T03:43:53;12.10;99.90
8715;DHT22;4394;51.208;8.904;2023-03-24T03:46:42;12.20;99.90
8715;DHT22;4394;51.208;8.904;2023-03-24T03:49:31;12.20;99.90
8715;DHT22;4394;51.208;8.904;2023-03-24T03:52:20;12.20;99.90
8715;DHT22;4394;51.208;8.904;2023-03-24T03:55:09;12.20;99.90
8715;DHT22;4394;51.208;8.904;2023-03-24T03:57:58;12.20;99.90
8715;DHT22;4394;51.208;8.904;2023-03-24T04:00:46;12.20;99.90
8715;DHT22;4394;51.208;8.904;2023-03-24T04:03:48;12.20;99.90
8715;DHT22;4394;51.208;8.904;2023-03-24T04:06:45;12.20;99.90
8715;DHT22;4394;51.208;8.904;2023-03-24T04:09:42;12.10;99.90
8715;DHT22;4394;51.208;8.904;2023-03-24T04:12:52;12.10;99.90
8715;DHT22;4394;51.208;8.904;2023-03-24T04:15:45;12.20;99.90
8715;DHT22;4394;51.208;8.904;2023-03-24T04:18:53;12.00;99.90
8715;DHT22;4394;51.208;8.904;2023-03-24T04:21:54;12.10;99.90
8715;DHT22;4394;51.208;8.904;2023-03-24T04:24:52;12.20;99.90
8715;DHT22;4394;51.208;8.904;2023-03-24T04:27:46;12.10;99.90
8715;DHT22;4394;51.208;8.904;2023-03-24T04:30:40;12.10;99.90
8715;DHT22;4394;51.208;8.904;2023-03-24T04:33:35;12.10;99.90
8715;DHT22;4394;51.208;8.904;2023-03-24T04:36:31;12.10;99.90
8715;DHT22;4394;51.208;8.904;2023-03-24T04:39:30;12.10;99.90
8715;DHT22;4394;51.208;8.904;2023-03-24T04:42:24;12.10;99.90
8715;DHT22;4394;51.208;8.904;2023-03-24T04:45:15;12.10;99.90
8715;DHT22;4394;51.208;8.904;2023-03-24T04:48:05;12.10;99.90
8715;DHT22;4394;51.208;8.904;2023-03-24T04:50:56;12.10;99.90
8715;DHT22;4394;51.208;8.904;2023-03-24T04:53:45;12.00;99.90
8715;DHT22;4394;51.208;8.904;2023-03-24T04:56:38;12.10;99.90
8715;DHT22;4394;51.208;8.904;2023-03-24T04:59:27;12.10;99.90
8715;DHT22;4394;51.208;8.904;2023-03-24T05:02:16;12.00;99.90
8715;DHT22;4394;51.208;8.904;2023-03-24T05:05:07;12.10;99.90
8715;DHT22;4394;51.208;8.904;2023-03-24T05:07:55;12.10;99.90
8715;DHT22;4394;51.208;8.904;2023-03-24T05:10:44;12.10;99.90
8715;DHT22;4394;51.208;8.904;2023-03-24T05:13:34;12.10;99.90
8715;DHT22;4394;51.208;8.904;2023-03-24T05:16:21;12.10;99.90
8715;DHT22;4394;51.208;8.904;2023-03-24T05:19:10;12.10;99.90
8715;DHT22;4394;51.208;8.904;2023-03-24T05:21:58;12.00;99.90
8715;DHT22;4394;51.208;8.904;2023-03-24T05:24:46;12.00;99.90
8715;DHT22;4394;51.208;8.904;2023-03-24T05:27:34;12.00;99.90
8715;DHT22;4394;51.208;8.904;2023-03-24T05:30:24;12.00;99.90
8715;DHT22;4394;51.208;8.904;2023-03-24T05:33:12;12.00;99.90
8715;DHT22;4394;51.208;8.904;2023-03-24T05:36:01;12.00;99.90
8715;DHT22;4394;51.208;8.904;2023-03-24T05:38:49;12.00;99.90
8715;DHT22;4394;51.208;8.904;2023-03-24T05:41:37;12.00;99.90
8715;DHT22;4394;51.208;8.904;2023-03-24T05:44:24;12.00;99.90
8715;DHT22;4394;51.208;8.904;2023-03-24T05:47:14;12.00;99.90
8715;DHT22;4394;51.208;8.904;2023-03-24T05:50:03;12.00;99.90
8715;DHT22;4394;51.208;8.904;2023-03-24T05:52:52;12.00;99.90
8715;DHT22;4394;51.208;8.904;2023-03-24T05:55:40;12.00;99.90
8715;DHT22;4394;51.208;8.904;2023-03-24T05:58:28;12.10;99.90
8715;DHT22;4394;51.208;8.904;2023-03-24T06:01:16;12.00;99.90
8715;DHT22;4394;51.208;8.904;2023-03-24T06:04:06;12.10;99.90
8715;DHT22;4394;51.208;8.904;2023-03-24T06:06:54;12.10;99.90
8715;DHT22;4394;51.208;8.904;2023-03-24T06:09:46;12.10;99.90
8715;DHT22;4394;51.208;8.904;2023-03-24T06:12:38;12.10;99.90
8715;DHT22;4394;51.208;8.904;2023-03-24T06:15:26;12.10;99.90
8715;DHT22;4394;51.208;8.904;2023-03-24T06:18:14;12.10;99.90
8715;DHT22;4394;51.208;8.904;2023-03-24T06:21:04;12.10;99.90
8715;DHT22;4394;51.208;8.904;2023-03-24T06:23:52;12.20;99.90
8715;DHT22;4394;51.208;8.904;2023-03-24T06:26:42;12.30;99.90
8715;DHT22;4394;51.208;8.904;2023-03-24T06:29:30;12.20;99.90
8715;DHT22;4394;51.208;8.904;2023-03-24T06:32:19;12.20;99.90
8715;DHT22;4394;51.208;8.904;2023-03-24T06:35:07;12.20;99.90
8715;DHT22;4394;51.208;8.904;2023-03-24T06:37:57;12.20;99.90
8715;DHT22;4394;51.208;8.904;2023-03-24T06:40:45;12.20;99.90
8715;DHT22;4394;51.208;8.904;2023-03-24T06:43:33;12.20;99.90
8715;DHT22;4394;51.208;8.904;2023-03-24T06:46:22;12.20;99.90
8715;DHT22;4394;51.208;8.904;2023-03-24T06:49:10;12.10;99.90
8715;DHT22;4394;51.208;8.904;2023-03-24T06:51:58;12.10;99.90
8715;DHT22;4394;51.208;8.904;2023-03-24T06:54:47;12.00;99.90
8715;DHT22;4394;51.208;8.904;2023-03-24T06:57:35;11.80;99.90
8715;DHT22;4394;51.208;8.904;2023-03-24T07:00:23;11.80;99.90
8715;DHT22;4394;51.208;8.904;2023-03-24T07:03:13;11.70;99.90
8715;DHT22;4394;51.208;8.904;2023-03-24T07:06:02;11.60;99.90
8715;DHT22;4394;51.208;8.904;2023-03-24T07:08:50;11.50;99.90
8715;DHT22;4394;51.208;8.904;2023-03-24T07:11:40;11.50;99.90
8715;DHT22;4394;51.208;8.904;2023-03-24T07:14:29;11.40;99.90
8715;DHT22;4394;51.208;8.904;2023-03-24T07:17:17;11.50;99.90
8715;DHT22;4394;51.208;8.904;2023-03-24T07:20:06;11.50;99.90
8715;DHT22;4394;51.208;8.904;2023-03-24T07:22:55;11.50;99.90
8715;DHT22;4394;51.208;8.904;2023-03-24T07:25:43;11.50;99.90
8715;DHT22;4394;51.208;8.904;2023-03-24T07:28:34;11.50;99.90
8715;DHT22;4394;51.208;8.904;2023-03-24T07:31:22;11.50;99.90
8715;DHT22;4394;51.208;8.904;2023-03-24T07:34:10;11.40;99.90
8715;DHT22;4394;51.208;8.904;2023-03-24T07:36:58;11.40;99.90
8715;DHT22;4394;51.208;8.904;2023-03-24T07:39:47;11.50;99.90
8715;DHT22;4394;51.208;8.904;2023-03-24T07:42:35;11.60;99.90
8715;DHT22;4394;51.208;8.904;2023-03-24T07:45:25;11.70;99.90
8715;DHT22;4394;51.208;8.904;2023-03-24T07:48:14;11.70;99.90
8715;DHT22;4394;51.208;8.904;2023-03-24T07:51:02;11.80;99.90
8715;DHT22;4394;51.208;8.904;2023-03-24T07:53:50;11.90;99.90
8715;DHT22;4394;51.208;8.904;2023-03-24T07:56:39;11.90;99.90
8715;DHT22;4394;51.208;8.904;2023-03-24T07:59:27;12.00;99.90
8715;DHT22;4394;51.208;8.904;2023-03-24T08:02:17;12.00;99.90
8715;DHT22;4394;51.208;8.904;2023-03-24T08:05:06;12.10;99.90
8715;DHT22;4394;51.208;8.904;2023-03-24T08:07:55;12.20;99.90
8715;DHT22;4394;51.208;8.904;2023-03-24T08:10:44;12.20;99.90
8715;DHT22;4394;51.208;8.904;2023-03-24T08:13:32;12.20;99.90
8715;DHT22;4394;51.208;8.904;2023-03-24T08:16:20;12.30;99.90
8715;DHT22;4394;51.208;8.904;2023-03-24T08:19:10;12.30;99.90
8715;DHT22;4394;51.208;8.904;2023-03-24T08:21:58;12.30;99.90
8715;DHT22;4394;51.208;8.904;2023-03-24T08:24:46;12.40;99.90
8715;DHT22;4394;51.208;8.904;2023-03-24T08:27:34;12.40;99.90
8715;DHT22;4394;51.208;8.904;2023-03-24T08:30:24;12.40;99.90
8715;DHT22;4394;51.208;8.904;2023-03-24T08:33:14;12.40;99.90
8715;DHT22;4394;51.208;8.904;2023-03-24T08:36:05;12.40;99.90
8715;DHT22;4394;51.208;8.904;2023-03-24T08:38:53;12.40;99.90
8715;DHT22;4394;51.208;8.904;2023-03-24T08:41:41;12.40;99.90
8715;DHT22;4394;51.208;8.904;2023-03-24T08:44:32;12.40;99.90
8715;DHT22;4394;51.208;8.904;2023-03-24T08:47:19;12.40;99.90
8715;DHT22;4394;51.208;8.904;2023-03-24T08:50:09;12.40;99.90
8715;DHT22;4394;51.208;8.904;2023-03-24T08:52:58;12.40;99.90
8715;DHT22;4394;51.208;8.904;2023-03-24T08:55:46;12.40;99.90
8715;DHT22;4394;51.208;8.904;2023-03-24T08:58:35;12.40;99.90
8715;DHT22;4394;51.208;8.904;2023-03-24T09:01:24;12.40;99.90
8715;DHT22;4394;51.208;8.904;2023-03-24T09:04:12;12.30;99.90
8715;DHT22;4394;51.208;8.904;2023-03-24T09:07:00;12.30;99.90
8715;DHT22;4394;51.208;8.904;2023-03-24T09:09:50;12.30;99.90
8715;DHT22;4394;51.208;8.904;2023-03-24T09:12:39;12.30;99.90
8715;DHT22;4394;51.208;8.904;2023-03-24T09:15:27;12.40;99.90
8715;DHT22;4394;51.208;8.904;2023-03-24T09:18:15;12.40;99.90
8715;DHT22;4394;51.208;8.904;2023-03-24T09:21:04;12.50;99.90
8715;DHT22;4394;51.208;8.904;2023-03-24T09:23:52;12.50;99.90
8715;DHT22;4394;51.208;8.904;2023-03-24T09:26:41;12.50;99.90
8715;DHT22;4394;51.208;8.904;2023-03-24T09:29:29;12.60;99.90
8715;DHT22;4394;51.208;8.904;2023-03-24T09:32:17;12.60;99.90
8715;DHT22;4394;51.208;8.904;2023-03-24T09:35:06;12.70;99.90
8715;DHT22;4394;51.208;8.904;2023-03-24T09:37:55;12.60;99.90
8715;DHT22;4394;51.208;8.904;2023-03-24T09:40:53;12.60;99.90
8715;DHT22;4394;51.208;8.904;2023-03-24T09:43:47;12.60;99.90
8715;DHT22;4394;51.208;8.904;2023-03-24T09:46:46;12.60;99.90
8715;DHT22;4394;51.208;8.904;2023-03-24T09:49:36;12.60;99.90
8715;DHT22;4394;51.208;8.904;2023-03-24T09:52:31;12.70;99.90
8715;DHT22;4394;51.208;8.904;2023-03-24T09:55:23;12.70;99.90
8715;DHT22;4394;51.208;8.904;2023-03-24T09:58:12;12.70;99.90
8715;DHT22;4394;51.208;8.904;2023-03-24T10:01:01;12.60;99.90
8715;DHT22;4394;51.208;8.904;2023-03-24T10:03:49;12.50;99.90
8715;DHT22;4394;51.208;8.904;2023-03-24T10:06:39;12.50;99.90
8715;DHT22;4394;51.208;8.904;2023-03-24T10:09:29;12.60;99.90
8715;DHT22;4394;51.208;8.904;2023-03-24T10:12:28;12.60;99.90
8715;DHT22;4394;51.208;8.904;2023-03-24T10:15:27;12.60;99.90
8715;DHT22;4394;51.208;8.904;2023-03-24T10:18:31;12.50;99.90
8715;DHT22;4394;51.208;8.904;2023-03-24T10:21:24;12.50;99.90
8715;DHT22;4394;51.208;8.904;2023-03-24T10:24:17;12.50;99.90
8715;DHT22;4394;51.208;8.904;2023-03-24T10:27:12;12.60;99.90
8715;DHT22;4394;51.208;8.904;2023-03-24T10:30:12;12.60;99.90
8715;DHT22;4394;51.208;8.904;2023-03-24T10:33:01;12.60;99.90
8715;DHT22;4394;51.208;8.904;2023-03-24T10:35:56;12.60;99.90
8715;DHT22;4394;51.208;8.904;2023-03-24T10:38:45;12.60;99.90
8715;DHT22;4394;51.208;8.904;2023-03-24T10:41:34;12.60;99.90
8715;DHT22;4394;51.208;8.904;2023-03-24T10:44:23;12.70;99.90
8715;DHT22;4394;51.208;8.904;2023-03-24T10:47:12;12.80;99.90
8715;DHT22;4394;51.208;8.904;2023-03-24T10:50:05;12.80;99.90
8715;DHT22;4394;51.208;8.904;2023-03-24T10:53:07;12.90;99.90
8715;DHT22;4394;51.208;8.904;2023-03-24T10:55:56;13.00;99.90
8715;DHT22;4394;51.208;8.904;2023-03-24T10:58:45;13.00;99.90
8715;DHT22;4394;51.208;8.904;2023-03-24T11:01:36;12.90;99.90
8715;DHT22;4394;51.208;8.904;2023-03-24T11:04:25;12.70;99.90
8715;DHT22;4394;51.208;8.904;2023-03-24T11:07:16;12.60;99.90
8715;DHT22;4394;51.208;8.904;2023-03-24T11:10:13;12.60;99.90
8715;DHT22;4394;51.208;8.904;2023-03-24T11:13:02;12.50;99.90
8715;DHT22;4394;51.208;8.904;2023-03-24T11:15:55;12.70;99.90
8715;DHT22;4394;51.208;8.904;2023-03-24T11:18:55;12.80;99.90
8715;DHT22;4394;51.208;8.904;2023-03-24T11:21:43;12.90;99.90
8715;DHT22;4394;51.208;8.904;2023-03-24T11:24:34;12.90;99.90
8715;DHT22;4394;51.208;8.904;2023-03-24T11:27:24;13.00;99.90
8715;DHT22;4394;51.208;8.904;2023-03-24T11:30:13;13.00;99.90
8715;DHT22;4394;51.208;8.904;2023-03-24T11:33:02;13.10;99.90
8715;DHT22;4394;51.208;8.904;2023-03-24T11:35:51;13.10;99.90
8715;DHT22;4394;51.208;8.904;2023-03-24T11:38:57;13.10;99.90
8715;DHT22;4394;51.208;8.904;2023-03-24T11:42:03;13.20;99.90
8715;DHT22;4394;51.208;8.904;2023-03-24T11:44:53;13.20;99.90
8715;DHT22;4394;51.208;8.904;2023-03-24T11:47:42;13.20;99.90
8715;DHT22;4394;51.208;8.904;2023-03-24T11:50:32;13.20;99.90
8715;DHT22;4394;51.208;8.904;2023-03-24T11:53:26;13.10;99.90
8715;DHT22;4394;51.208;8.904;2023-03-24T11:56:22;13.20;99.90
8715;DHT22;4394;51.208;8.904;2023-03-24T11:59:24;13.20;99.90
8715;DHT22;4394;51.208;8.904;2023-03-24T12:02:23;13.20;99.90
8715;DHT22;4394;51.208;8.904;2023-03-24T12:05:21;13.30;99.90
8715;DHT22;4394;51.208;8.904;2023-03-24T12:08:34;13.40;99.90
8715;DHT22;4394;51.208;8.904;2023-03-24T12:11:36;13.40;99.90
8715;DHT22;4394;51.208;8.904;2023-03-24T12:14:32;13.50;99.90
8715;DHT22;4394;51.208;8.904;2023-03-24T12:17:24;13.60;99.90
8715;DHT22;4394;51.208;8.904;2023-03-24T12:20:20;13.70;99.90
8715;DHT22;4394;51.208;8.904;2023-03-24T12:23:12;13.80;99.90
8715;DHT22;4394;51.208;8.904;2023-03-24T12:26:14;13.90;99.90
8715;DHT22;4394;51.208;8.904;2023-03-24T12:29:26;14.10;99.90
8715;DHT22;4394;51.208;8.904;2023-03-24T12:32:27;14.30;99.90
8715;DHT22;4394;51.208;8.904;2023-03-24T12:35:35;14.50;99.90
8715;DHT22;4394;51.208;8.904;2023-03-24T12:38:41;14.60;99.90
8715;DHT22;4394;51.208;8.904;2023-03-24T12:41:49;14.80;99.90
8715;DHT22;4394;51.208;8.904;2023-03-24T12:44:56;14.90;99.90
8715;DHT22;4394;51.208;8.904;2023-03-24T12:48:06;15.00;99.90
8715;DHT22;4394;51.208;8.904;2023-03-24T12:51:08;15.10;99.90
8715;DHT22;4394;51.208;8.904;2023-03-24T12:54:08;15.10;99.90
8715;DHT22;4394;51.208;8.904;2023-03-24T12:56:59;15.20;99.90
8715;DHT22;4394;51.208;8.904;2023-03-24T12:59:52;15.10;99.90
8715;DHT22;4394;51.208;8.904;2023-03-24T13:02:46;15.10;99.90
8715;DHT22;4394;51.208;8.904;2023-03-24T13:05:40;14.90;99.90
8715;DHT22;4394;51.208;8.904;2023-03-24T13:08:28;14.80;99.90
8715;DHT22;4394;51.208;8.904;2023-03-24T13:11:20;14.60;99.90
8715;DHT22;4394;51.208;8.904;2023-03-24T13:14:23;14.50;99.90
8715;DHT22;4394;51.208;8.904;2023-03-24T13:17:15;14.40;99.90
8715;DHT22;4394;51.208;8.904;2023-03-24T13:20:11;14.30;99.90
8715;DHT22;4394;51.208;8.904;2023-03-24T13:23:06;14.30;99.90
8715;DHT22;4394;51.208;8.904;2023-03-24T13:26:00;14.30;99.90
8715;DHT22;4394;51.208;8.904;2023-03-24T13:28:59;14.30;99.90
8715;DHT22;4394;51.208;8.904;2023-03-24T13:31:55;14.20;99.90
8715;DHT22;4394;51.208;8.904;2023-03-24T13:34:47;14.20;99.90
8715;DHT22;4394;51.208;8.904;2023-03-24T13:37:38;14.20;99.90
8715;DHT22;4394;51.208;8.904;2023-03-24T13:40:29;14.20;99.90
8715;DHT22;4394;51.208;8.904;2023-03-24T13:43:20;14.20;99.90
8715;DHT22;4394;51.208;8.904;2023-03-24T13:46:12;14.20;99.90
8715;DHT22;4394;51.208;8.904;2023-03-24T13:49:05;14.30;99.90
8715;DHT22;4394;51.208;8.904;2023-03-24T13:51:53;14.40;99.90
8715;DHT22;4394;51.208;8.904;2023-03-24T13:54:41;14.50;99.90
8715;DHT22;4394;51.208;8.904;2023-03-24T13:57:31;14.60;99.90
8715;DHT22;4394;51.208;8.904;2023-03-24T14:00:21;14.60;99.90
8715;DHT22;4394;51.208;8.904;2023-03-24T14:03:14;14.70;99.90
8715;DHT22;4394;51.208;8.904;2023-03-24T14:06:09;14.80;99.90
8715;DHT22;4394;51.208;8.904;2023-03-24T14:09:01;14.90;99.90
8715;DHT22;4394;51.208;8.904;2023-03-24T14:12:16;14.70;99.90
8715;DHT22;4394;51.208;8.904;2023-03-24T14:15:17;14.70;99.90
8715;DHT22;4394;51.208;8.904;2023-03-24T14:18:38;14.50;99.90
8715;DHT22;4394;51.208;8.904;2023-03-24T14:21:28;14.50;99.70
8715;DHT22;4394;51.208;8.904;2023-03-24T14:24:22;14.30;99.90
8715;DHT22;4394;51.208;8.904;2023-03-24T14:27:28;14.40;99.90
8715;DHT22;4394;51.208;8.904;2023-03-24T14:30:21;14.50;99.90
8715;DHT22;4394;51.208;8.904;2023-03-24T14:33:22;14.50;99.90
8715;DHT22;4394;51.208;8.904;2023-03-24T14:36:17;14.50;99.90
8715;DHT22;4394;51.208;8.904;2023-03-24T14:39:11;14.50;99.50
8715;DHT22;4394;51.208;8.904;2023-03-24T14:42:26;14.50;99.90
8715;DHT22;4394;51.208;8.904;2023-03-24T14:45:39;14.50;99.90
8715;DHT22;4394;51.208;8.904;2023-03-24T14:48:33;14.50;99.90
8715;DHT22;4394;51.208;8.904;2023-03-24T14:51:29;14.50;99.90
8715;DHT22;4394;51.208;8.904;2023-03-24T14:54:28;14.40;99.90
8715;DHT22;4394;51.208;8.904;2023-03-24T14:57:19;14.40;99.90
8715;DHT22;4394;51.208;8.904;2023-03-24T15:00:14;14.40;99.90
8715;DHT22;4394;51.208;8.904;2023-03-24T15:03:17;14.50;99.90
8715;DHT22;4394;51.208;8.904;2023-03-24T15:06:14;14.60;99.90
8715;DHT22;4394;51.208;8.904;2023-03-24T15:09:08;14.60;99.90
8715;DHT22;4394;51.208;8.904;2023-03-24T15:11:59;14.50;99.90
8715;DHT22;4394;51.208;8.904;2023-03-24T15:14:47;14.50;99.90
8715;DHT22;4394;51.208;8.904;2023-03-24T15:17:36;14.50;99.90
8715;DHT22;4394;51.208;8.904;2023-03-24T15:20:27;14.60;99.90
8715;DHT22;4394;51.208;8.904;2023-03-24T15:23:17;14.70;99.90
8715;DHT22;4394;51.208;8.904;2023-03-24T15:26:11;14.90;99.90
8715;DHT22;4394;51.208;8.904;2023-03-24T15:29:00;14.80;99.90
8715;DHT22;4394;51.208;8.904;2023-03-24T15:31:49;14.70;99.90
8715;DHT22;4394;51.208;8.904;2023-03-24T15:34:39;14.70;99.90
8715;DHT22;4394;51.208;8.904;2023-03-24T15:37:33;14.70;99.90
8715;DHT22;4394;51.208;8.904;2023-03-24T15:40:34;14.70;99.90
8715;DHT22;4394;51.208;8.904;2023-03-24T15:43:23;14.60;99.90
8715;DHT22;4394;51.208;8.904;2023-03-24T15:46:21;14.50;99.90
8715;DHT22;4394;51.208;8.904;2023-03-24T15:49:17;14.50;99.90
8715;DHT22;4394;51.208;8.904;2023-03-24T15:52:25;14.50;99.90
8715;DHT22;4394;51.208;8.904;2023-03-24T15:55:23;14.50;99.90
8715;DHT22;4394;51.208;8.904;2023-03-24T15:58:21;14.40;99.90
8715;DHT22;4394;51.208;8.904;2023-03-24T16:01:10;14.40;99.90
8715;DHT22;4394;51.208;8.904;2023-03-24T16:04:00;14.30;99.90
8715;DHT22;4394;51.208;8.904;2023-03-24T16:06:50;14.40;99.90
8715;DHT22;4394;51.208;8.904;2023-03-24T16:09:40;14.30;99.90
8715;DHT22;4394;51.208;8.904;2023-03-24T16:12:33;14.30;99.90
8715;DHT22;4394;51.208;8.904;2023-03-24T16:15:22;14.20;99.90
8715;DHT22;4394;51.208;8.904;2023-03-24T16:18:14;14.20;99.90
8715;DHT22;4394;51.208;8.904;2023-03-24T16:21:10;14.20;99.90
8715;DHT22;4394;51.208;8.904;2023-03-24T16:23:59;14.20;99.90
8715;DHT22;4394;51.208;8.904;2023-03-24T16:26:48;14.10;99.90
8715;DHT22;4394;51.208;8.904;2023-03-24T16:29:37;14.10;99.90
8715;DHT22;4394;51.208;8.904;2023-03-24T16:32:25;14.10;99.90
8715;DHT22;4394;51.208;8.904;2023-03-24T16:35:13;14.10;99.90
8715;DHT22;4394;51.208;8.904;2023-03-24T16:38:01;14.10;99.90
8715;DHT22;4394;51.208;8.904;2023-03-24T16:40:51;14.10;99.90
8715;DHT22;4394;51.208;8.904;2023-03-24T16:43:39;14.00;99.90
8715;DHT22;4394;51.208;8.904;2023-03-24T16:46:31;14.00;99.90
8715;DHT22;4394;51.208;8.904;2023-03-24T16:49:21;13.90;99.90
8715;DHT22;4394;51.208;8.904;2023-03-24T16:52:10;13.90;99.90
8715;DHT22;4394;51.208;8.904;2023-03-24T16:54:58;13.90;99.90
8715;DHT22;4394;51.208;8.904;2023-03-24T16:57:46;13.90;99.90
8715;DHT22;4394;51.208;8.904;2023-03-24T17:00:35;13.90;99.90
8715;DHT22;4394;51.208;8.904;2023-03-24T17:03:25;13.90;99.90
8715;DHT22;4394;51.208;8.904;2023-03-24T17:06:16;13.60;99.90
8715;DHT22;4394;51.208;8.904;2023-03-24T17:09:05;13.10;99.90
8715;DHT22;4394;51.208;8.904;2023-03-24T17:11:56;12.80;99.90
8715;DHT22;4394;51.208;8.904;2023-03-24T17:14:44;12.60;99.90
8715;DHT22;4394;51.208;8.904;2023-03-24T17:17:32;12.40;99.90
8715;DHT22;4394;51.208;8.904;2023-03-24T17:20:23;12.10;99.90
8715;DHT22;4394;51.208;8.904;2023-03-24T17:23:13;11.90;99.90
8715;DHT22;4394;51.208;8.904;2023-03-24T17:26:04;11.70;99.90
8715;DHT22;4394;51.208;8.904;2023-03-24T17:28:52;11.60;99.90
8715;DHT22;4394;51.208;8.904;2023-03-24T17:31:40;11.60;99.90
8715;DHT22;4394;51.208;8.904;2023-03-24T17:34:29;11.50;99.90
8715;DHT22;4394;51.208;8.904;2023-03-24T17:37:19;11.50;99.90
8715;DHT22;4394;51.208;8.904;2023-03-24T17:40:08;11.50;99.90
8715;DHT22;4394;51.208;8.904;2023-03-24T17:42:57;11.50;99.90
8715;DHT22;4394;51.208;8.904;2023-03-24T17:45:45;11.50;99.90
8715;DHT22;4394;51.208;8.904;2023-03-24T17:48:33;11.50;99.90
8715;DHT22;4394;51.208;8.904;2023-03-24T17:51:21;11.50;99.90
8715;DHT22;4394;51.208;8.904;2023-03-24T17:54:11;11.50;99.90
8715;DHT22;4394;51.208;8.904;2023-03-24T17:56:59;11.50;99.90
8715;DHT22;4394;51.208;8.904;2023-03-24T17:59:47;11.50;99.90
8715;DHT22;4394;51.208;8.904;2023-03-24T18:02:37;11.50;99.90
8715;DHT22;4394;51.208;8.904;2023-03-24T18:05:25;11.60;99.90
8715;DHT22;4394;51.208;8.904;2023-03-24T18:08:13;11.60;99.90
8715;DHT22;4394;51.208;8.904;2023-03-24T18:11:05;11.60;99.90
8715;DHT22;4394;51.208;8.904;2023-03-24T18:13:53;11.60;99.90
8715;DHT22;4394;51.208;8.904;2023-03-24T18:16:41;11.50;99.90
8715;DHT22;4394;51.208;8.904;2023-03-24T18:19:29;11.50;99.90
8715;DHT22;4394;51.208;8.904;2023-03-24T18:22:17;11.50;99.90
8715;DHT22;4394;51.208;8.904;2023-03-24T18:25:07;11.60;99.90
8715;DHT22;4394;51.208;8.904;2023-03-24T18:27:56;11.10;99.90
8715;DHT22;4394;51.208;8.904;2023-03-24T18:30:44;10.80;99.90
8715;DHT22;4394;51.208;8.904;2023-03-24T18:33:32;10.50;99.90
8715;DHT22;4394;51.208;8.904;2023-03-24T18:36:21;10.20;99.90
8715;DHT22;4394;51.208;8.904;2023-03-24T18:39:12;10.00;99.90
8715;DHT22;4394;51.208;8.904;2023-03-24T18:42:00;9.70;99.90
8715;DHT22;4394;51.208;8.904;2023-03-24T18:44:49;9.70;99.90
8715;DHT22;4394;51.208;8.904;2023-03-24T18:47:37;9.70;99.90
8715;DHT22;4394;51.208;8.904;2023-03-24T18:50:25;9.80;99.90